createdAt,value
2018-09-19T00:09:36.122Z,56.9
2018-09-19T00:19:51.356Z,57.2
2018-09-19T00:30:06.178Z,57.9
2018-09-19T00:40:21.650Z,56.8
2018-09-19T00:50:36.855Z,57.8
2018-09-19T01:00:52.550Z,59.5
2018-09-19T01:11:07.742Z,59.9
2018-09-19T01:21:22.074Z,60.7
2018-09-19T01:31:37.625Z,60.1
2018-09-19T01:41:51.710Z,56
2018-09-19T01:52:05.795Z,54.4
2018-09-19T02:02:21.432Z,55.6
2018-09-19T02:12:36.965Z,54.3
2018-09-19T02:22:50.404Z,48.5
2018-09-19T02:33:04.486Z,39.8
2018-09-19T02:43:19.266Z,29.3
2018-09-19T02:53:33.895Z,22.8
2018-09-19T03:03:48.447Z,19.9
2018-09-19T03:14:03.980Z,18.6
2018-09-19T03:24:19.452Z,18.9
2018-09-19T03:34:34.846Z,20.9
2018-09-19T03:44:48.973Z,22.8
2018-09-19T03:55:03.603Z,20.8
2018-09-19T04:05:18.000Z,18.6
2018-09-19T04:15:31.949Z,16.5
2018-09-19T04:25:46.627Z,16.3
2018-09-19T04:36:00.843Z,14.8
2018-09-19T04:46:16.001Z,14.1
2018-09-19T04:56:29.804Z,14.3
2018-09-19T05:06:45.416Z,14.1
2018-09-19T05:16:59.326Z,13.9
2018-09-19T05:27:14.107Z,10.4
2018-09-19T05:37:29.138Z,9.6
2018-09-19T05:47:43.074Z,11.7
2018-09-19T05:57:57.785Z,10.9
2018-09-19T06:08:11.757Z,13.6
2018-09-19T06:18:26.561Z,20.2
2018-09-19T06:28:40.675Z,32.9
2018-09-19T06:38:56.288Z,47
2018-09-19T06:49:11.444Z,54.3
2018-09-19T06:59:25.290Z,61.6
2018-09-19T07:09:40.673Z,69.7
2018-09-19T07:19:55.869Z,88.5
2018-09-19T07:30:11.207Z,95.6
2018-09-19T07:40:26.672Z,98.9
2018-09-19T07:50:41.995Z,100
2018-09-19T08:00:57.221Z,99.6
2018-09-19T08:11:12.135Z,98
2018-09-19T08:21:27.876Z,95.3
2018-09-19T08:31:43.202Z,93.1
2018-09-19T08:41:58.291Z,92
2018-09-19T08:52:12.290Z,91.2
2018-09-19T09:02:27.929Z,89.7
2018-09-19T09:12:43.296Z,88.5
2018-09-19T09:22:57.316Z,89.2
2018-09-19T09:33:12.410Z,87.6
2018-09-19T09:43:27.396Z,86.5
2018-09-19T09:53:42.737Z,85.7
2018-09-19T10:03:57.117Z,84.5
2018-09-19T10:14:12.196Z,83
2018-09-19T10:24:26.919Z,81.8
2018-09-19T10:34:40.860Z,82.4
2018-09-19T10:44:55.135Z,80.9
2018-09-19T10:55:09.943Z,80.2
2018-09-19T11:05:25.404Z,80
2018-09-19T11:15:41.409Z,78.2
2018-09-19T11:25:56.907Z,78
2018-09-19T11:36:11.843Z,80.1
2018-09-19T11:56:40.571Z,80.7
2018-09-19T12:06:54.942Z,80.1
2018-09-19T12:17:10.018Z,80.6
2018-09-19T12:27:24.381Z,77.9
2018-09-19T12:37:38.795Z,78.1
2018-09-19T12:47:53.714Z,79.2
2018-09-19T12:58:08.216Z,76.9
2018-09-19T13:08:22.292Z,74.8
2018-09-19T13:18:36.619Z,73.9
2018-09-19T13:28:51.353Z,73
2018-09-19T13:39:06.123Z,71.7
2018-09-19T13:49:21.605Z,71.2
2018-09-19T13:59:36.179Z,70.6
2018-09-19T14:09:51.345Z,69.6
2018-09-19T14:20:06.818Z,69
2018-09-19T14:30:21.303Z,68.8
2018-09-19T14:40:35.954Z,69.1
2018-09-19T14:50:51.224Z,69.3
2018-09-19T15:01:06.113Z,69.3
2018-09-19T15:11:21.181Z,69.8
2018-09-19T15:21:35.359Z,68.7
2018-09-19T15:31:49.535Z,68.6
2018-09-19T15:42:03.414Z,68.3
2018-09-19T15:52:18.232Z,68.6
2018-09-19T16:02:33.981Z,67.8
2018-09-19T16:12:48.317Z,68.4
2018-09-19T16:23:02.196Z,67.4
2018-09-19T16:33:18.105Z,68.8
2018-09-19T16:43:32.646Z,69.3
2018-09-19T16:53:46.673Z,70
2018-09-19T17:04:01.461Z,70.7
2018-09-19T17:14:16.874Z,72.5
2018-09-19T17:24:32.668Z,74.1
2018-09-19T17:34:47.074Z,76
2018-09-19T17:45:01.797Z,77.2
2018-09-19T17:55:16.171Z,78.5
2018-09-19T18:05:31.285Z,79.4
2018-09-19T18:15:46.788Z,79.2
2018-09-19T18:26:00.963Z,79.5
2018-09-19T18:36:16.530Z,78.8
2018-09-19T18:46:31.954Z,78.2
2018-09-19T18:56:46.706Z,78.8
2018-09-19T19:07:02.392Z,80
2018-09-19T19:17:18.050Z,80.7
2018-09-19T19:27:33.742Z,82
2018-09-19T19:37:49.096Z,82.8
2018-09-19T19:48:04.382Z,83.6
2018-09-19T19:58:18.453Z,85.3
2018-09-19T20:08:33.334Z,86.2
2018-09-19T20:18:48.148Z,86.1
2018-09-19T20:29:03.704Z,85.7
2018-09-19T20:39:19.124Z,83.5
2018-09-19T20:49:33.228Z,82.2
2018-09-19T20:59:48.840Z,80.9
2018-09-19T21:10:04.587Z,87.7
2018-09-19T21:20:19.590Z,85.2
2018-09-19T21:30:33.445Z,84.1
2018-09-19T21:40:47.359Z,83.4
2018-09-19T21:51:02.468Z,79.7
2018-09-19T22:01:16.905Z,73.9
2018-09-19T22:11:30.664Z,75.5
2018-09-19T22:21:44.485Z,80.9
2018-09-19T22:31:58.771Z,75.4
2018-09-19T22:42:14.547Z,71
2018-09-19T22:52:28.081Z,70.5
2018-09-19T23:02:41.916Z,67.1
2018-09-19T23:12:57.294Z,68.1
2018-09-19T23:23:12.380Z,72
2018-09-19T23:33:27.804Z,74.4
2018-09-19T23:43:43.563Z,78.3
2018-09-19T23:53:57.144Z,77.7
